sensor_id;sensor_type;location;lat;lon;timestamp;P1;durP1;ratioP1;P2;durP2;ratioP2
66546;SDS011;53400;50.364;14.874;2024-01-07T00:00:56;30.83;;;15.50;;
66546;SDS011;53400;50.364;14.874;2024-01-07T00:03:43;32.35;;;14.13;;
66546;SDS011;53400;50.364;14.874;2024-01-07T00:06:20;27.52;;;13.88;;
66546;SDS011;53400;50.364;14.874;2024-01-07T00:08:49;30.58;;;14.10;;
66546;SDS011;53400;50.364;14.874;2024-01-07T00:11:19;37.05;;;15.93;;
66546;SDS011;53400;50.364;14.874;2024-01-07T00:13:45;33.15;;;14.40;;
66546;SDS011;53400;50.364;14.874;2024-01-07T00:16:12;31.27;;;14.35;;
66546;SDS011;53400;50.364;14.874;2024-01-07T00:18:38;35.35;;;15.30;;
66546;SDS011;53400;50.364;14.874;2024-01-07T00:21:05;29.55;;;13.32;;
66546;SDS011;53400;50.364;14.874;2024-01-07T00:23:33;29.67;;;14.20;;
66546;SDS011;53400;50.364;14.874;2024-01-07T00:26:00;29.40;;;13.02;;
66546;SDS011;53400;50.364;14.874;2024-01-07T00:28:27;28.80;;;15.20;;
66546;SDS011;53400;50.364;14.874;2024-01-07T00:30:56;30.08;;;13.70;;
66546;SDS011;53400;50.364;14.874;2024-01-07T00:33:27;26.48;;;12.02;;
66546;SDS011;53400;50.364;14.874;2024-01-07T00:35:54;30.35;;;12.65;;
66546;SDS011;53400;50.364;14.874;2024-01-07T00:38:21;27.45;;;12.05;;
66546;SDS011;53400;50.364;14.874;2024-01-07T00:40:53;24.77;;;12.90;;
66546;SDS011;53400;50.364;14.874;2024-01-07T00:43:28;25.90;;;11.55;;
66546;SDS011;53400;50.364;14.874;2024-01-07T00:45:55;26.70;;;12.70;;
66546;SDS011;53400;50.364;14.874;2024-01-07T00:48:21;25.90;;;12.02;;
66546;SDS011;53400;50.364;14.874;2024-01-07T00:50:56;23.05;;;11.02;;
66546;SDS011;53400;50.364;14.874;2024-01-07T00:53:31;27.60;;;11.45;;
66546;SDS011;53400;50.364;14.874;2024-01-07T00:55:57;24.35;;;12.25;;
66546;SDS011;53400;50.364;14.874;2024-01-07T00:58:25;22.80;;;11.23;;
66546;SDS011;53400;50.364;14.874;2024-01-07T01:01:01;24.60;;;11.25;;
66546;SDS011;53400;50.364;14.874;2024-01-07T01:03:29;25.52;;;11.73;;
66546;SDS011;53400;50.364;14.874;2024-01-07T01:05:57;25.00;;;11.82;;
66546;SDS011;53400;50.364;14.874;2024-01-07T01:08:24;27.60;;;11.93;;
66546;SDS011;53400;50.364;14.874;2024-01-07T01:10:55;20.35;;;10.63;;
66546;SDS011;53400;50.364;14.874;2024-01-07T01:13:24;23.40;;;11.50;;
66546;SDS011;53400;50.364;14.874;2024-01-07T01:15:51;26.52;;;11.45;;
66546;SDS011;53400;50.364;14.874;2024-01-07T01:18:17;22.88;;;11.88;;
66546;SDS011;53400;50.364;14.874;2024-01-07T01:23:35;22.25;;;11.02;;
66546;SDS011;53400;50.364;14.874;2024-01-07T01:26:02;24.10;;;11.20;;
66546;SDS011;53400;50.364;14.874;2024-01-07T01:28:28;24.83;;;11.70;;
66546;SDS011;53400;50.364;14.874;2024-01-07T01:30:57;24.15;;;10.80;;
66546;SDS011;53400;50.364;14.874;2024-01-07T01:33:23;25.55;;;11.07;;
66546;SDS011;53400;50.364;14.874;2024-01-07T01:35:51;23.75;;;10.23;;
66546;SDS011;53400;50.364;14.874;2024-01-07T01:38:19;21.10;;;10.38;;
66546;SDS011;53400;50.364;14.874;2024-01-07T01:40:58;22.15;;;10.73;;
66546;SDS011;53400;50.364;14.874;2024-01-07T01:43:29;22.15;;;9.77;;
66546;SDS011;53400;50.364;14.874;2024-01-07T01:45:55;22.33;;;10.30;;
66546;SDS011;53400;50.364;14.874;2024-01-07T01:48:22;23.50;;;10.73;;
66546;SDS011;53400;50.364;14.874;2024-01-07T01:50:51;23.80;;;10.93;;
66546;SDS011;53400;50.364;14.874;2024-01-07T01:53:28;21.98;;;10.77;;
66546;SDS011;53400;50.364;14.874;2024-01-07T01:55:56;23.10;;;11.45;;
66546;SDS011;53400;50.364;14.874;2024-01-07T01:58:23;24.00;;;12.65;;
66546;SDS011;53400;50.364;14.874;2024-01-07T02:01:02;25.05;;;10.70;;
66546;SDS011;53400;50.364;14.874;2024-01-07T02:03:32;23.30;;;11.63;;
66546;SDS011;53400;50.364;14.874;2024-01-07T02:05:59;21.88;;;10.55;;
66546;SDS011;53400;50.364;14.874;2024-01-07T02:08:25;22.48;;;12.15;;
66546;SDS011;53400;50.364;14.874;2024-01-07T02:10:59;24.45;;;10.82;;
66546;SDS011;53400;50.364;14.874;2024-01-07T02:13:40;22.40;;;11.38;;
66546;SDS011;53400;50.364;14.874;2024-01-07T02:16:06;21.90;;;10.85;;
66546;SDS011;53400;50.364;14.874;2024-01-07T02:18:32;25.23;;;11.82;;
66546;SDS011;53400;50.364;14.874;2024-01-07T02:21:05;24.08;;;12.82;;
66546;SDS011;53400;50.364;14.874;2024-01-07T02:23:32;22.77;;;11.50;;
66546;SDS011;53400;50.364;14.874;2024-01-07T02:26:03;24.58;;;11.60;;
66546;SDS011;53400;50.364;14.874;2024-01-07T02:28:29;22.02;;;10.85;;
66546;SDS011;53400;50.364;14.874;2024-01-07T02:30:57;22.13;;;11.85;;
66546;SDS011;53400;50.364;14.874;2024-01-07T02:33:26;22.02;;;11.85;;
66546;SDS011;53400;50.364;14.874;2024-01-07T02:35:52;26.42;;;11.20;;
66546;SDS011;53400;50.364;14.874;2024-01-07T02:38:18;23.83;;;11.93;;
66546;SDS011;53400;50.364;14.874;2024-01-07T02:40:44;23.35;;;11.10;;
66546;SDS011;53400;50.364;14.874;2024-01-07T02:43:12;23.85;;;12.57;;
66546;SDS011;53400;50.364;14.874;2024-01-07T02:45:44;21.08;;;10.30;;
66546;SDS011;53400;50.364;14.874;2024-01-07T02:48:10;23.60;;;11.35;;
66546;SDS011;53400;50.364;14.874;2024-01-07T02:50:36;20.85;;;10.05;;
66546;SDS011;53400;50.364;14.874;2024-01-07T02:53:02;22.38;;;10.82;;
66546;SDS011;53400;50.364;14.874;2024-01-07T02:55:34;21.63;;;10.43;;
66546;SDS011;53400;50.364;14.874;2024-01-07T02:58:00;21.38;;;11.38;;
66546;SDS011;53400;50.364;14.874;2024-01-07T03:00:28;18.80;;;9.30;;
66546;SDS011;53400;50.364;14.874;2024-01-07T03:02:59;18.15;;;10.80;;
66546;SDS011;53400;50.364;14.874;2024-01-07T03:05:29;19.23;;;10.15;;
66546;SDS011;53400;50.364;14.874;2024-01-07T03:07:57;19.35;;;10.05;;
66546;SDS011;53400;50.364;14.874;2024-01-07T03:10:24;17.92;;;10.05;;
66546;SDS011;53400;50.364;14.874;2024-01-07T03:12:50;17.00;;;9.73;;
66546;SDS011;53400;50.364;14.874;2024-01-07T03:15:31;19.20;;;9.75;;
66546;SDS011;53400;50.364;14.874;2024-01-07T03:17:57;20.42;;;9.40;;
66546;SDS011;53400;50.364;14.874;2024-01-07T03:20:23;20.63;;;9.57;;
66546;SDS011;53400;50.364;14.874;2024-01-07T03:23:02;20.83;;;10.00;;
66546;SDS011;53400;50.364;14.874;2024-01-07T03:25:37;18.48;;;9.73;;
66546;SDS011;53400;50.364;14.874;2024-01-07T03:28:03;14.48;;;8.40;;
66546;SDS011;53400;50.364;14.874;2024-01-07T03:30:31;16.33;;;9.23;;
66546;SDS011;53400;50.364;14.874;2024-01-07T03:33:02;18.90;;;10.00;;
66546;SDS011;53400;50.364;14.874;2024-01-07T03:35:32;18.67;;;8.35;;
66546;SDS011;53400;50.364;14.874;2024-01-07T03:37:57;16.90;;;9.85;;
66546;SDS011;53400;50.364;14.874;2024-01-07T03:40:24;16.92;;;9.20;;
66546;SDS011;53400;50.364;14.874;2024-01-07T03:42:51;19.05;;;9.43;;
66546;SDS011;53400;50.364;14.874;2024-01-07T03:45:18;18.63;;;9.20;;
66546;SDS011;53400;50.364;14.874;2024-01-07T03:47:45;17.55;;;8.65;;
66546;SDS011;53400;50.364;14.874;2024-01-07T03:50:11;20.67;;;10.05;;
66546;SDS011;53400;50.364;14.874;2024-01-07T03:52:40;18.88;;;9.48;;
66546;SDS011;53400;50.364;14.874;2024-01-07T03:55:13;20.20;;;10.32;;
66546;SDS011;53400;50.364;14.874;2024-01-07T03:57:42;17.05;;;8.23;;
66546;SDS011;53400;50.364;14.874;2024-01-07T04:00:09;19.13;;;9.48;;
66546;SDS011;53400;50.364;14.874;2024-01-07T04:02:36;18.40;;;8.63;;
66546;SDS011;53400;50.364;14.874;2024-01-07T04:05:06;18.35;;;8.70;;
66546;SDS011;53400;50.364;14.874;2024-01-07T04:07:43;19.67;;;9.63;;
66546;SDS011;53400;50.364;14.874;2024-01-07T04:10:09;16.70;;;8.35;;
66546;SDS011;53400;50.364;14.874;2024-01-07T04:12:36;17.80;;;8.75;;
66546;SDS011;53400;50.364;14.874;2024-01-07T04:15:03;18.02;;;9.07;;
66546;SDS011;53400;50.364;14.874;2024-01-07T04:17:34;18.48;;;9.35;;
66546;SDS011;53400;50.364;14.874;2024-01-07T04:20:00;17.63;;;7.65;;
66546;SDS011;53400;50.364;14.874;2024-01-07T04:22:30;17.00;;;8.25;;
66546;SDS011;53400;50.364;14.874;2024-01-07T04:25:04;18.33;;;9.65;;
66546;SDS011;53400;50.364;14.874;2024-01-07T04:27:37;19.25;;;9.15;;
66546;SDS011;53400;50.364;14.874;2024-01-07T04:30:06;19.52;;;9.45;;
66546;SDS011;53400;50.364;14.874;2024-01-07T04:32:33;14.32;;;7.72;;
66546;SDS011;53400;50.364;14.874;2024-01-07T04:35:04;16.95;;;9.82;;
66546;SDS011;53400;50.364;14.874;2024-01-07T04:37:36;17.60;;;8.82;;
66546;SDS011;53400;50.364;14.874;2024-01-07T04:40:03;20.70;;;9.55;;
66546;SDS011;53400;50.364;14.874;2024-01-07T04:42:30;19.38;;;10.20;;
66546;SDS011;53400;50.364;14.874;2024-01-07T04:45:02;19.15;;;9.02;;
66546;SDS011;53400;50.364;14.874;2024-01-07T04:47:38;19.50;;;10.57;;
66546;SDS011;53400;50.364;14.874;2024-01-07T04:50:04;17.83;;;9.75;;
66546;SDS011;53400;50.364;14.874;2024-01-07T04:52:31;17.88;;;9.38;;
66546;SDS011;53400;50.364;14.874;2024-01-07T04:55:07;15.20;;;9.05;;
66546;SDS011;53400;50.364;14.874;2024-01-07T04:57:43;17.65;;;9.38;;
66546;SDS011;53400;50.364;14.874;2024-01-07T05:00:10;17.90;;;9.60;;
66546;SDS011;53400;50.364;14.874;2024-01-07T05:02:37;17.23;;;8.80;;
66546;SDS011;53400;50.364;14.874;2024-01-07T05:05:11;16.75;;;8.90;;
66546;SDS011;53400;50.364;14.874;2024-01-07T05:07:40;16.33;;;8.95;;
66546;SDS011;53400;50.364;14.874;2024-01-07T05:10:08;18.38;;;9.88;;
66546;SDS011;53400;50.364;14.874;2024-01-07T05:12:34;16.25;;;8.88;;
66546;SDS011;53400;50.364;14.874;2024-01-07T05:15:07;18.83;;;10.13;;
66546;SDS011;53400;50.364;14.874;2024-01-07T05:17:37;17.63;;;9.23;;
66546;SDS011;53400;50.364;14.874;2024-01-07T05:20:04;16.33;;;9.35;;
66546;SDS011;53400;50.364;14.874;2024-01-07T05:22:32;20.70;;;10.07;;
66546;SDS011;53400;50.364;14.874;2024-01-07T05:25:05;17.55;;;10.13;;
66546;SDS011;53400;50.364;14.874;2024-01-07T05:27:39;18.55;;;9.85;;
66546;SDS011;53400;50.364;14.874;2024-01-07T05:30:06;18.38;;;10.65;;
66546;SDS011;53400;50.364;14.874;2024-01-07T05:32:33;19.13;;;9.63;;
66546;SDS011;53400;50.364;14.874;2024-01-07T05:35:09;18.65;;;9.65;;
66546;SDS011;53400;50.364;14.874;2024-01-07T05:37:38;20.13;;;11.00;;
66546;SDS011;53400;50.364;14.874;2024-01-07T05:40:04;18.10;;;9.93;;
66546;SDS011;53400;50.364;14.874;2024-01-07T05:42:33;20.35;;;10.15;;
66546;SDS011;53400;50.364;14.874;2024-01-07T05:45:02;18.35;;;9.95;;
66546;SDS011;53400;50.364;14.874;2024-01-07T05:50:08;21.40;;;10.48;;
66546;SDS011;53400;50.364;14.874;2024-01-07T05:52:40;23.90;;;12.70;;
66546;SDS011;53400;50.364;14.874;2024-01-07T05:55:10;22.13;;;10.93;;
66546;SDS011;53400;50.364;14.874;2024-01-07T05:57:44;23.98;;;10.90;;
66546;SDS011;53400;50.364;14.874;2024-01-07T06:00:11;20.58;;;10.52;;
66546;SDS011;53400;50.364;14.874;2024-01-07T06:02:38;18.98;;;10.18;;
66546;SDS011;53400;50.364;14.874;2024-01-07T06:05:16;21.30;;;10.98;;
66546;SDS011;53400;50.364;14.874;2024-01-07T06:07:51;18.65;;;10.30;;
66546;SDS011;53400;50.364;14.874;2024-01-07T06:10:16;19.70;;;9.77;;
66546;SDS011;53400;50.364;14.874;2024-01-07T06:12:44;20.42;;;10.07;;
66546;SDS011;53400;50.364;14.874;2024-01-07T06:15:13;21.83;;;10.55;;
66546;SDS011;53400;50.364;14.874;2024-01-07T06:17:40;19.98;;;10.07;;
66546;SDS011;53400;50.364;14.874;2024-01-07T06:20:06;20.02;;;11.25;;
66546;SDS011;53400;50.364;14.874;2024-01-07T06:22:34;20.20;;;11.57;;
66546;SDS011;53400;50.364;14.874;2024-01-07T06:25:03;19.35;;;10.05;;
66546;SDS011;53400;50.364;14.874;2024-01-07T06:27:42;19.17;;;10.07;;
66546;SDS011;53400;50.364;14.874;2024-01-07T06:30:10;20.75;;;10.07;;
66546;SDS011;53400;50.364;14.874;2024-01-07T06:32:37;18.48;;;9.68;;
66546;SDS011;53400;50.364;14.874;2024-01-07T06:35:03;20.67;;;10.52;;
66546;SDS011;53400;50.364;14.874;2024-01-07T06:37:31;21.65;;;10.70;;
66546;SDS011;53400;50.364;14.874;2024-01-07T06:39:57;18.15;;;9.93;;
66546;SDS011;53400;50.364;14.874;2024-01-07T06:42:24;17.33;;;10.05;;
66546;SDS011;53400;50.364;14.874;2024-01-07T06:44:50;19.08;;;10.35;;
66546;SDS011;53400;50.364;14.874;2024-01-07T06:47:18;19.15;;;10.52;;
66546;SDS011;53400;50.364;14.874;2024-01-07T06:49:44;17.55;;;8.95;;
66546;SDS011;53400;50.364;14.874;2024-01-07T06:52:14;18.25;;;8.48;;
66546;SDS011;53400;50.364;14.874;2024-01-07T06:54:40;20.13;;;10.77;;
66546;SDS011;53400;50.364;14.874;2024-01-07T06:57:14;20.35;;;10.35;;
66546;SDS011;53400;50.364;14.874;2024-01-07T06:59:42;16.67;;;8.48;;
66546;SDS011;53400;50.364;14.874;2024-01-07T07:02:09;16.58;;;9.38;;
66546;SDS011;53400;50.364;14.874;2024-01-07T07:04:37;15.55;;;8.55;;
66546;SDS011;53400;50.364;14.874;2024-01-07T07:07:12;18.50;;;8.13;;
66546;SDS011;53400;50.364;14.874;2024-01-07T07:09:38;14.60;;;8.30;;
66546;SDS011;53400;50.364;14.874;2024-01-07T07:12:05;18.27;;;8.18;;
66546;SDS011;53400;50.364;14.874;2024-01-07T07:14:33;17.95;;;8.30;;
66546;SDS011;53400;50.364;14.874;2024-01-07T07:17:04;19.38;;;8.50;;
66546;SDS011;53400;50.364;14.874;2024-01-07T07:22:01;12.45;;;6.82;;
66546;SDS011;53400;50.364;14.874;2024-01-07T07:24:27;14.70;;;8.23;;
66546;SDS011;53400;50.364;14.874;2024-01-07T07:26:53;16.35;;;8.07;;
66546;SDS011;53400;50.364;14.874;2024-01-07T07:29:19;14.07;;;7.43;;
66546;SDS011;53400;50.364;14.874;2024-01-07T07:31:53;15.90;;;8.18;;
66546;SDS011;53400;50.364;14.874;2024-01-07T07:34:19;13.45;;;7.07;;
66546;SDS011;53400;50.364;14.874;2024-01-07T07:36:45;16.15;;;7.57;;
66546;SDS011;53400;50.364;14.874;2024-01-07T07:39:13;13.95;;;7.45;;
66546;SDS011;53400;50.364;14.874;2024-01-07T07:41:42;14.23;;;8.45;;
66546;SDS011;53400;50.364;14.874;2024-01-07T07:44:14;14.00;;;8.13;;
66546;SDS011;53400;50.364;14.874;2024-01-07T07:46:40;13.63;;;7.00;;
66546;SDS011;53400;50.364;14.874;2024-01-07T07:50:33;13.48;;;7.72;;
66546;SDS011;53400;50.364;14.874;2024-01-07T07:52:06;16.02;;;8.43;;
66546;SDS011;53400;50.364;14.874;2024-01-07T07:57:02;11.60;;;6.97;;
66546;SDS011;53400;50.364;14.874;2024-01-07T07:59:33;13.43;;;7.28;;
66546;SDS011;53400;50.364;14.874;2024-01-07T08:02:01;15.82;;;8.35;;
66546;SDS011;53400;50.364;14.874;2024-01-07T08:04:27;14.18;;;7.28;;
66546;SDS011;53400;50.364;14.874;2024-01-07T08:06:53;11.88;;;6.60;;
66546;SDS011;53400;50.364;14.874;2024-01-07T08:09:24;11.80;;;6.63;;
66546;SDS011;53400;50.364;14.874;2024-01-07T08:11:55;13.00;;;6.07;;
66546;SDS011;53400;50.364;14.874;2024-01-07T08:14:20;12.90;;;6.75;;
66546;SDS011;53400;50.364;14.874;2024-01-07T08:16:47;13.23;;;6.95;;
66546;SDS011;53400;50.364;14.874;2024-01-07T08:19:16;13.60;;;7.35;;
66546;SDS011;53400;50.364;14.874;2024-01-07T08:22:05;15.27;;;8.15;;
66546;SDS011;53400;50.364;14.874;2024-01-07T08:24:31;14.50;;;7.65;;
66546;SDS011;53400;50.364;14.874;2024-01-07T08:26:59;13.10;;;6.82;;
66546;SDS011;53400;50.364;14.874;2024-01-07T08:29:29;13.57;;;6.85;;
66546;SDS011;53400;50.364;14.874;2024-01-07T08:31:56;11.25;;;6.75;;
66546;SDS011;53400;50.364;14.874;2024-01-07T08:34:22;14.68;;;7.60;;
66546;SDS011;53400;50.364;14.874;2024-01-07T08:36:48;14.02;;;7.57;;
66546;SDS011;53400;50.364;14.874;2024-01-07T08:39:17;14.35;;;7.57;;
66546;SDS011;53400;50.364;14.874;2024-01-07T08:41:54;13.32;;;7.55;;
66546;SDS011;53400;50.364;14.874;2024-01-07T08:44:23;14.25;;;7.38;;
66546;SDS011;53400;50.364;14.874;2024-01-07T08:46:49;13.63;;;6.55;;
66546;SDS011;53400;50.364;14.874;2024-01-07T08:49:15;13.57;;;7.00;;
66546;SDS011;53400;50.364;14.874;2024-01-07T08:51:47;13.18;;;7.18;;
66546;SDS011;53400;50.364;14.874;2024-01-07T08:54:13;14.18;;;7.88;;
66546;SDS011;53400;50.364;14.874;2024-01-07T08:56:39;15.73;;;7.63;;
66546;SDS011;53400;50.364;14.874;2024-01-07T09:01:58;14.45;;;7.07;;
66546;SDS011;53400;50.364;14.874;2024-01-07T09:04:24;12.32;;;7.15;;
66546;SDS011;53400;50.364;14.874;2024-01-07T09:06:50;12.98;;;7.30;;
66546;SDS011;53400;50.364;14.874;2024-01-07T09:09:17;13.93;;;6.70;;
66546;SDS011;53400;50.364;14.874;2024-01-07T09:11:45;13.52;;;7.18;;
66546;SDS011;53400;50.364;14.874;2024-01-07T09:14:12;12.57;;;5.72;;
66546;SDS011;53400;50.364;14.874;2024-01-07T09:16:41;14.00;;;7.90;;
66546;SDS011;53400;50.364;14.874;2024-01-07T09:21:52;12.80;;;6.90;;
66546;SDS011;53400;50.364;14.874;2024-01-07T09:24:21;13.13;;;6.90;;
66546;SDS011;53400;50.364;14.874;2024-01-07T09:26:47;12.93;;;7.03;;
66546;SDS011;53400;50.364;14.874;2024-01-07T09:29:17;13.00;;;7.32;;
66546;SDS011;53400;50.364;14.874;2024-01-07T09:31:56;15.27;;;8.77;;
66546;SDS011;53400;50.364;14.874;2024-01-07T09:34:23;23.00;;;10.05;;
66546;SDS011;53400;50.364;14.874;2024-01-07T09:36:49;13.40;;;7.18;;
66546;SDS011;53400;50.364;14.874;2024-01-07T09:39:19;13.13;;;7.10;;
66546;SDS011;53400;50.364;14.874;2024-01-07T09:41:57;14.85;;;7.88;;
66546;SDS011;53400;50.364;14.874;2024-01-07T09:44:25;14.88;;;7.68;;
66546;SDS011;53400;50.364;14.874;2024-01-07T09:46:52;15.75;;;7.88;;
66546;SDS011;53400;50.364;14.874;2024-01-07T09:49:23;14.50;;;8.20;;
66546;SDS011;53400;50.364;14.874;2024-01-07T09:51:50;15.43;;;7.72;;
66546;SDS011;53400;50.364;14.874;2024-01-07T09:54:24;11.63;;;6.45;;
66546;SDS011;53400;50.364;14.874;2024-01-07T09:56:50;12.32;;;6.88;;
66546;SDS011;53400;50.364;14.874;2024-01-07T09:59:28;14.48;;;7.18;;
66546;SDS011;53400;50.364;14.874;2024-01-07T10:01:58;12.15;;;7.30;;
66546;SDS011;53400;50.364;14.874;2024-01-07T10:04:26;14.43;;;8.00;;
66546;SDS011;53400;50.364;14.874;2024-01-07T10:06:53;11.00;;;6.85;;
66546;SDS011;53400;50.364;14.874;2024-01-07T10:09:22;14.20;;;6.93;;
66546;SDS011;53400;50.364;14.874;2024-01-07T10:11:56;13.07;;;7.18;;
66546;SDS011;53400;50.364;14.874;2024-01-07T10:14:22;12.07;;;6.82;;
66546;SDS011;53400;50.364;14.874;2024-01-07T10:16:53;13.65;;;7.10;;
66546;SDS011;53400;50.364;14.874;2024-01-07T10:19:31;12.48;;;6.30;;
66546;SDS011;53400;50.364;14.874;2024-01-07T10:24:37;12.23;;;6.47;;
66546;SDS011;53400;50.364;14.874;2024-01-07T10:27:05;14.32;;;6.85;;
66546;SDS011;53400;50.364;14.874;2024-01-07T10:29:32;14.68;;;8.52;;
66546;SDS011;53400;50.364;14.874;2024-01-07T10:32:07;13.15;;;6.55;;
66546;SDS011;53400;50.364;14.874;2024-01-07T10:34:35;14.55;;;7.75;;
66546;SDS011;53400;50.364;14.874;2024-01-07T10:37:04;12.30;;;6.55;;
66546;SDS011;53400;50.364;14.874;2024-01-07T10:39:31;14.35;;;7.47;;
66546;SDS011;53400;50.364;14.874;2024-01-07T10:41:58;13.13;;;7.35;;
66546;SDS011;53400;50.364;14.874;2024-01-07T10:44:25;13.57;;;6.97;;
66546;SDS011;53400;50.364;14.874;2024-01-07T10:46:53;11.25;;;6.78;;
66546;SDS011;53400;50.364;14.874;2024-01-07T10:49:24;12.77;;;6.20;;
66546;SDS011;53400;50.364;14.874;2024-01-07T10:51:54;13.23;;;7.15;;
66546;SDS011;53400;50.364;14.874;2024-01-07T10:54:29;12.77;;;6.82;;
66546;SDS011;53400;50.364;14.874;2024-01-07T10:56:58;15.13;;;6.93;;
66546;SDS011;53400;50.364;14.874;2024-01-07T10:59:26;13.55;;;7.32;;
66546;SDS011;53400;50.364;14.874;2024-01-07T11:02:02;12.60;;;6.93;;
66546;SDS011;53400;50.364;14.874;2024-01-07T11:04:34;13.82;;;7.63;;
66546;SDS011;53400;50.364;14.874;2024-01-07T11:07:12;17.08;;;8.38;;
66546;SDS011;53400;50.364;14.874;2024-01-07T11:09:54;12.57;;;6.97;;
66546;SDS011;53400;50.364;14.874;2024-01-07T11:12:35;11.90;;;7.78;;
66546;SDS011;53400;50.364;14.874;2024-01-07T11:15:02;13.80;;;6.75;;
66546;SDS011;53400;50.364;14.874;2024-01-07T11:17:41;11.85;;;7.10;;
66546;SDS011;53400;50.364;14.874;2024-01-07T11:20:12;10.70;;;5.47;;
66546;SDS011;53400;50.364;14.874;2024-01-07T11:22:41;14.68;;;7.40;;
66546;SDS011;53400;50.364;14.874;2024-01-07T11:25:32;10.73;;;6.03;;
66546;SDS011;53400;50.364;14.874;2024-01-07T11:28:11;11.40;;;6.50;;
66546;SDS011;53400;50.364;14.874;2024-01-07T11:30:55;11.75;;;6.40;;
66546;SDS011;53400;50.364;14.874;2024-01-07T11:33:31;12.38;;;7.22;;
66546;SDS011;53400;50.364;14.874;2024-01-07T11:36:03;12.18;;;7.28;;
66546;SDS011;53400;50.364;14.874;2024-01-07T11:38:35;12.68;;;6.25;;
66546;SDS011;53400;50.364;14.874;2024-01-07T11:41:04;12.20;;;6.50;;
66546;SDS011;53400;50.364;14.874;2024-01-07T11:43:36;11.25;;;6.28;;
66546;SDS011;53400;50.364;14.874;2024-01-07T11:46:09;10.95;;;6.55;;
66546;SDS011;53400;50.364;14.874;2024-01-07T11:48:39;13.20;;;7.25;;
66546;SDS011;53400;50.364;14.874;2024-01-07T11:51:06;14.73;;;7.47;;
66546;SDS011;53400;50.364;14.874;2024-01-07T11:53:33;16.83;;;8.05;;
66546;SDS011;53400;50.364;14.874;2024-01-07T11:56:10;15.07;;;7.60;;
66546;SDS011;53400;50.364;14.874;2024-01-07T11:58:37;11.48;;;6.43;;
66546;SDS011;53400;50.364;14.874;2024-01-07T12:01:05;13.27;;;7.47;;
66546;SDS011;53400;50.364;14.874;2024-01-07T12:03:31;12.40;;;6.47;;
66546;SDS011;53400;50.364;14.874;2024-01-07T12:05:57;12.75;;;7.70;;
66546;SDS011;53400;50.364;14.874;2024-01-07T12:08:23;13.88;;;7.93;;
66546;SDS011;53400;50.364;14.874;2024-01-07T12:10:54;12.45;;;6.88;;
66546;SDS011;53400;50.364;14.874;2024-01-07T12:16:09;13.43;;;7.80;;
66546;SDS011;53400;50.364;14.874;2024-01-07T12:18:39;14.05;;;8.02;;
66546;SDS011;53400;50.364;14.874;2024-01-07T12:21:05;13.02;;;7.65;;
66546;SDS011;53400;50.364;14.874;2024-01-07T12:23:35;23.35;;;9.73;;
66546;SDS011;53400;50.364;14.874;2024-01-07T12:26:11;19.10;;;8.50;;
66546;SDS011;53400;50.364;14.874;2024-01-07T12:28:37;17.95;;;8.80;;
66546;SDS011;53400;50.364;14.874;2024-01-07T12:31:06;15.35;;;8.05;;
66546;SDS011;53400;50.364;14.874;2024-01-07T12:33:33;11.43;;;6.45;;
66546;SDS011;53400;50.364;14.874;2024-01-07T12:36:20;12.45;;;6.22;;
66546;SDS011;53400;50.364;14.874;2024-01-07T12:38:46;12.30;;;5.35;;
66546;SDS011;53400;50.364;14.874;2024-01-07T12:41:13;8.98;;;4.88;;
66546;SDS011;53400;50.364;14.874;2024-01-07T12:43:39;9.85;;;4.38;;
66546;SDS011;53400;50.364;14.874;2024-01-07T12:46:06;10.93;;;5.35;;
66546;SDS011;53400;50.364;14.874;2024-01-07T12:48:32;10.00;;;4.78;;
66546;SDS011;53400;50.364;14.874;2024-01-07T12:50:59;9.70;;;5.10;;
66546;SDS011;53400;50.364;14.874;2024-01-07T12:53:28;9.90;;;4.53;;
66546;SDS011;53400;50.364;14.874;2024-01-07T12:56:00;8.95;;;5.00;;
66546;SDS011;53400;50.364;14.874;2024-01-07T12:58:25;8.32;;;4.32;;
66546;SDS011;53400;50.364;14.874;2024-01-07T13:00:52;8.82;;;4.05;;
66546;SDS011;53400;50.364;14.874;2024-01-07T13:06:08;8.80;;;4.25;;
66546;SDS011;53400;50.364;14.874;2024-01-07T13:08:34;7.00;;;3.10;;
66546;SDS011;53400;50.364;14.874;2024-01-07T13:11:00;7.90;;;3.95;;
66546;SDS011;53400;50.364;14.874;2024-01-07T13:13:26;10.98;;;5.05;;
66546;SDS011;53400;50.364;14.874;2024-01-07T13:15:53;9.98;;;4.63;;
66546;SDS011;53400;50.364;14.874;2024-01-07T13:18:19;8.32;;;4.45;;
66546;SDS011;53400;50.364;14.874;2024-01-07T13:20:47;12.85;;;5.20;;
66546;SDS011;53400;50.364;14.874;2024-01-07T13:23:13;12.95;;;4.97;;
66546;SDS011;53400;50.364;14.874;2024-01-07T13:25:39;14.35;;;5.20;;
66546;SDS011;53400;50.364;14.874;2024-01-07T13:28:08;8.43;;;4.30;;
66546;SDS011;53400;50.364;14.874;2024-01-07T13:30:37;10.23;;;4.28;;
66546;SDS011;53400;50.364;14.874;2024-01-07T13:33:04;8.02;;;3.63;;
66546;SDS011;53400;50.364;14.874;2024-01-07T13:35:30;11.88;;;5.68;;
66546;SDS011;53400;50.364;14.874;2024-01-07T13:38:12;8.70;;;4.15;;
66546;SDS011;53400;50.364;14.874;2024-01-07T13:40:41;7.32;;;3.65;;
66546;SDS011;53400;50.364;14.874;2024-01-07T13:43:07;9.40;;;4.65;;
66546;SDS011;53400;50.364;14.874;2024-01-07T13:45:34;13.35;;;5.57;;
66546;SDS011;53400;50.364;14.874;2024-01-07T13:48:09;7.35;;;3.40;;
66546;SDS011;53400;50.364;14.874;2024-01-07T13:50:37;7.85;;;3.90;;
66546;SDS011;53400;50.364;14.874;2024-01-07T13:53:05;7.00;;;2.85;;
66546;SDS011;53400;50.364;14.874;2024-01-07T13:58:14;9.30;;;3.95;;
66546;SDS011;53400;50.364;14.874;2024-01-07T14:00:42;7.60;;;3.63;;
66546;SDS011;53400;50.364;14.874;2024-01-07T14:03:09;8.40;;;3.63;;
66546;SDS011;53400;50.364;14.874;2024-01-07T14:05:38;8.38;;;3.53;;
66546;SDS011;53400;50.364;14.874;2024-01-07T14:08:12;6.60;;;3.72;;
66546;SDS011;53400;50.364;14.874;2024-01-07T14:10:38;13.90;;;6.20;;
66546;SDS011;53400;50.364;14.874;2024-01-07T14:13:06;10.75;;;4.82;;
66546;SDS011;53400;50.364;14.874;2024-01-07T14:15:32;18.27;;;7.40;;
66546;SDS011;53400;50.364;14.874;2024-01-07T14:18:01;12.13;;;5.13;;
66546;SDS011;53400;50.364;14.874;2024-01-07T14:20:27;20.83;;;8.13;;
66546;SDS011;53400;50.364;14.874;2024-01-07T14:23:00;21.65;;;7.95;;
66546;SDS011;53400;50.364;14.874;2024-01-07T14:25:46;26.52;;;7.93;;
66546;SDS011;53400;50.364;14.874;2024-01-07T14:28:17;14.88;;;6.60;;
66546;SDS011;53400;50.364;14.874;2024-01-07T14:30:50;10.70;;;4.68;;
66546;SDS011;53400;50.364;14.874;2024-01-07T14:33:17;10.50;;;4.78;;
66546;SDS011;53400;50.364;14.874;2024-01-07T14:36:05;8.52;;;4.78;;
66546;SDS011;53400;50.364;14.874;2024-01-07T14:38:31;8.45;;;5.20;;
66546;SDS011;53400;50.364;14.874;2024-01-07T14:41:01;9.32;;;4.97;;
66546;SDS011;53400;50.364;14.874;2024-01-07T14:46:43;8.82;;;4.13;;
66546;SDS011;53400;50.364;14.874;2024-01-07T14:49:32;10.88;;;5.45;;
66546;SDS011;53400;50.364;14.874;2024-01-07T14:52:41;11.30;;;4.90;;
66546;SDS011;53400;50.364;14.874;2024-01-07T14:57:40;9.98;;;5.00;;
66546;SDS011;53400;50.364;14.874;2024-01-07T15:00:10;10.05;;;5.32;;
66546;SDS011;53400;50.364;14.874;2024-01-07T15:02:57;11.63;;;4.53;;
66546;SDS011;53400;50.364;14.874;2024-01-07T15:05:49;12.05;;;5.15;;